Time;durP1;ratioP1;P1;durP2;ratioP2;P2;SDS_P1;SDS_P2;PMS_P1;PMS_P2;Temp;Humidity;BMP_temperature;BMP_pressure;BME280_temperature;BME280_humidity;BME280_pressure;Samples;Min_cycle;Max_cycle;Signal;HPM_P1;HPM_P2
2022/11/19 00:00:49;;;;;;;16.70;9.35;;;8.20;99.90;;;;;;5013715;28;20080;-77
2022/11/19 00:03:17;;;;;;;17.27;9.93;;;8.10;99.90;;;;;;5012657;28;20373;-77
2022/11/19 00:05:45;;;;;;;23.50;10.98;;;8.20;99.90;;;;;;4995872;28;20045;-77
2022/11/19 00:08:15;;;;;;;24.60;9.75;;;8.10;99.90;;;;;;5011524;28;20034;-77
2022/11/19 00:10:41;;;;;;;17.10;9.27;;;8.10;99.90;;;;;;5012842;28;20105;-77
2022/11/19 00:13:08;;;;;;;15.65;9.63;;;8.10;99.90;;;;;;4994740;28;20054;-77
2022/11/19 00:15:35;;;;;;;14.65;9.13;;;8.00;99.90;;;;;;5013153;28;20042;-77
2022/11/19 00:18:03;;;;;;;19.88;9.55;;;8.10;99.90;;;;;;5012497;28;20056;-77
2022/11/19 00:20:29;;;;;;;14.57;9.18;;;8.00;99.90;;;;;;5012749;28;20053;-77
2022/11/19 00:22:56;;;;;;;14.25;8.50;;;8.00;99.90;;;;;;5012834;28;20452;-77
2022/11/19 00:25:24;;;;;;;17.33;10.02;;;8.00;99.90;;;;;;5013010;28;20037;-77
2022/11/19 00:27:51;;;;;;;15.73;9.00;;;8.00;99.90;;;;;;5012273;28;20026;-77
2022/11/19 00:30:18;;;;;;;17.85;9.77;;;8.00;99.90;;;;;;4994088;28;20518;-77
2022/11/19 00:32:45;;;;;;;20.17;9.95;;;7.90;99.90;;;;;;5012374;28;20045;-76
2022/11/19 00:35:11;;;;;;;16.75;9.05;;;7.90;99.90;;;;;;5012193;28;20041;-77
2022/11/19 00:37:38;;;;;;;19.92;9.43;;;8.00;99.90;;;;;;5012610;28;20037;-77
2022/11/19 00:40:06;;;;;;;16.50;8.95;;;8.00;99.90;;;;;;5011879;28;20033;-77
2022/11/19 00:42:33;;;;;;;17.67;9.85;;;7.90;99.90;;;;;;5012753;28;20041;-77
2022/11/19 00:44:59;;;;;;;16.60;8.85;;;8.00;99.90;;;;;;5012132;28;20033;-77
2022/11/19 00:47:26;;;;;;;19.48;10.27;;;7.90;99.90;;;;;;5012797;28;20034;-77
2022/11/19 00:49:52;;;;;;;21.23;10.43;;;8.00;99.90;;;;;;5012829;28;20036;-76
2022/11/19 00:52:19;;;;;;;22.70;11.02;;;8.00;99.90;;;;;;4977631;28;20046;-77
2022/11/19 00:54:45;;;;;;;17.25;10.32;;;8.00;99.90;;;;;;4994541;28;20045;-77
2022/11/19 00:57:11;;;;;;;19.65;10.35;;;8.00;99.90;;;;;;5012004;28;20336;-77
2022/11/19 00:59:37;;;;;;;23.27;10.77;;;8.00;99.90;;;;;;5012448;28;20033;-77
2022/11/19 01:02:03;;;;;;;21.42;12.45;;;8.00;99.90;;;;;;5011540;28;20044;-77
2022/11/19 01:04:29;;;;;;;25.33;14.05;;;8.00;99.90;;;;;;5012261;28;20045;-77
2022/11/19 01:06:55;;;;;;;20.83;11.48;;;8.00;99.90;;;;;;4994702;28;20034;-77
2022/11/19 01:09:23;;;;;;;20.73;12.32;;;8.00;99.90;;;;;;5011880;28;20030;-77
2022/11/19 01:11:49;;;;;;;21.90;10.55;;;8.00;99.90;;;;;;5012398;28;20042;-77
2022/11/19 01:14:15;;;;;;;18.02;10.02;;;7.90;99.90;;;;;;5011233;28;20033;-77
2022/11/19 01:16:41;;;;;;;19.45;9.73;;;8.00;99.90;;;;;;5012650;28;20036;-77
2022/11/19 01:19:10;;;;;;;20.77;11.57;;;7.90;99.90;;;;;;5013922;28;20045;-77
2022/11/19 01:21:37;;;;;;;16.10;8.88;;;7.90;99.90;;;;;;5016211;28;20030;-77
2022/11/19 01:24:04;;;;;;;20.05;7.93;;;7.90;99.90;;;;;;5015753;28;20471;-77
2022/11/19 01:26:30;;;;;;;18.73;8.93;;;7.90;99.90;;;;;;5016287;28;20034;-76
2022/11/19 01:28:57;;;;;;;14.48;7.47;;;7.90;99.90;;;;;;5015870;28;20368;-76
2022/11/19 01:31:26;;;;;;;17.58;8.43;;;7.90;99.90;;;;;;5015257;28;20049;-76
2022/11/19 01:33:53;;;;;;;16.45;8.27;;;7.90;99.90;;;;;;5015906;28;20045;-77
2022/11/19 01:36:21;;;;;;;25.10;10.65;;;7.90;99.90;;;;;;5015398;28;20084;-75
2022/11/19 01:38:49;;;;;;;22.33;10.57;;;7.90;99.90;;;;;;5015986;28;20034;-75
2022/11/19 01:41:21;;;;;;;22.85;10.40;;;7.90;99.90;;;;;;5015096;28;20037;-75
2022/11/19 01:43:50;;;;;;;14.35;9.88;;;7.90;99.90;;;;;;5015806;28;20026;-75
2022/11/19 01:46:22;;;;;;;21.10;10.52;;;7.90;99.90;;;;;;5015357;28;20026;-75
2022/11/19 01:49:07;;;;;;;14.20;9.57;;;7.90;99.90;;;;;;5015912;28;20141;-75
2022/11/19 01:51:47;;;;;;;18.17;9.70;;;7.80;99.90;;;;;;5015382;28;20360;-75
2022/11/19 01:54:27;;;;;;;17.92;10.30;;;7.80;99.90;;;;;;5014931;28;20048;-75
2022/11/19 01:56:55;;;;;;;16.27;8.90;;;7.80;99.90;;;;;;5016036;28;20042;-75
2022/11/19 01:59:22;;;;;;;16.70;9.48;;;7.70;99.90;;;;;;5014762;28;20033;-75
2022/11/19 02:01:48;;;;;;;14.75;8.90;;;7.70;99.90;;;;;;4997524;28;20045;-75
2022/11/19 02:04:16;;;;;;;22.40;9.55;;;7.70;99.90;;;;;;5014754;28;20372;-75
2022/11/19 02:06:44;;;;;;;19.17;8.65;;;7.70;99.90;;;;;;5015426;28;20463;-75
2022/11/19 02:09:10;;;;;;;19.23;8.63;;;7.70;99.90;;;;;;5014884;28;20022;-75
2022/11/19 02:12:04;;;;;;;18.15;10.18;;;7.70;99.90;;;;;;5015256;28;20033;-75
2022/11/19 02:14:44;;;;;;;14.63;8.40;;;7.70;99.90;;;;;;5015286;28;20056;-75
2022/11/19 02:17:47;;;;;;;17.02;9.20;;;7.70;99.90;;;;;;5014620;28;20038;-75
2022/11/19 02:20:48;;;;;;;17.23;8.82;;;7.70;99.90;;;;;;4996942;28;20045;-75
2022/11/19 02:23:23;;;;;;;16.60;9.40;;;7.70;99.90;;;;;;5014424;28;20034;-75
2022/11/19 02:25:55;;;;;;;27.23;10.52;;;7.70;99.90;;;;;;5015455;28;20029;-75
2022/11/19 02:28:51;;;;;;;15.35;8.98;;;7.70;99.90;;;;;;5014399;28;20048;-75
2022/11/19 02:31:46;;;;;;;13.50;9.20;;;7.70;99.90;;;;;;4995525;28;20042;-75
2022/11/19 02:34:26;;;;;;;18.65;8.60;;;7.70;99.90;;;;;;5014358;28;20396;-75
2022/11/19 02:37:04;;;;;;;18.92;9.38;;;7.60;99.90;;;;;;5015478;28;20475;-74
2022/11/19 02:39:42;;;;;;;15.05;8.60;;;7.60;99.90;;;;;;4997301;28;20049;-76
2022/11/19 02:42:26;;;;;;;14.48;8.52;;;7.60;99.90;;;;;;5014510;28;20038;-75
2022/11/19 02:44:58;;;;;;;13.02;7.93;;;7.60;99.90;;;;;;5014857;28;20042;-75
2022/11/19 02:47:39;;;;;;;14.15;8.30;;;7.60;99.90;;;;;;5014024;28;20034;-75
2022/11/19 02:50:22;;;;;;;13.25;7.68;;;7.60;99.90;;;;;;5014306;28;20030;-78
2022/11/19 02:52:48;;;;;;;12.38;8.32;;;7.60;99.90;;;;;;5014649;28;20045;-75
2022/11/19 02:55:17;;;;;;;20.45;8.80;;;7.60;99.90;;;;;;5013762;28;20049;-75
2022/11/19 02:57:50;;;;;;;16.55;8.32;;;7.60;99.90;;;;;;5015020;28;20408;-75
2022/11/19 03:06:00;;;;;;;17.30;8.50;;;7.60;99.90;;;;;;5014486;28;20044;-75
2022/11/19 03:08:28;;;;;;;13.38;8.45;;;7.60;99.90;;;;;;5013668;28;20514;-75
2022/11/19 03:11:12;;;;;;;14.77;7.65;;;7.60;99.90;;;;;;5014487;28;20387;-75
2022/11/19 03:17:04;;;;;;;13.45;7.88;;;7.60;99.90;;;;;;5014298;28;20486;-75
2022/11/19 03:19:31;;;;;;;13.43;8.65;;;7.60;99.90;;;;;;5013892;28;20376;-76
2022/11/19 03:22:08;;;;;;;14.23;7.53;;;7.60;99.90;;;;;;5014114;28;20033;-75
2022/11/19 03:24:44;;;;;;;14.25;8.73;;;7.60;99.90;;;;;;5014513;28;20046;-75
2022/11/19 03:27:16;;;;;;;16.90;9.60;;;7.60;99.90;;;;;;4995552;28;20045;-75
2022/11/19 03:29:50;;;;;;;12.90;8.93;;;7.60;99.90;;;;;;5013889;28;20050;-75
2022/11/19 03:32:21;;;;;;;13.98;7.97;;;7.60;99.90;;;;;;5013553;28;20030;-75
2022/11/19 03:34:53;;;;;;;14.23;8.45;;;7.70;99.90;;;;;;5013891;28;20033;-75
2022/11/19 03:37:22;;;;;;;17.13;8.45;;;7.70;99.90;;;;;;5013128;28;20057;-75
2022/11/19 03:39:50;;;;;;;18.70;9.07;;;7.70;99.90;;;;;;5014022;28;20383;-75
2022/11/19 03:42:18;;;;;;;14.77;8.73;;;7.60;99.90;;;;;;5012889;28;20490;-75
2022/11/19 03:44:52;;;;;;;15.50;8.88;;;7.60;99.90;;;;;;5013717;28;20363;-75
2022/11/19 03:47:24;;;;;;;17.52;8.93;;;7.60;99.90;;;;;;4995002;28;20050;-75
2022/11/19 03:49:57;;;;;;;18.67;9.57;;;7.60;99.90;;;;;;5013678;28;20060;-75
2022/11/19 03:52:23;;;;;;;18.30;9.55;;;7.60;99.90;;;;;;5012229;28;20046;-75
2022/11/19 03:54:49;;;;;;;18.63;10.27;;;7.70;99.90;;;;;;5013724;28;20049;-75
2022/11/19 03:57:18;;;;;;;12.40;7.75;;;7.70;99.90;;;;;;5012766;28;20061;-75
2022/11/19 03:59:45;;;;;;;14.43;9.25;;;7.70;99.90;;;;;;4996207;28;20045;-75
2022/11/19 04:02:12;;;;;;;15.00;8.27;;;7.70;99.90;;;;;;5012612;28;20383;-75
2022/11/19 04:04:38;;;;;;;17.60;8.93;;;7.70;99.90;;;;;;5014287;28;20097;-76
2022/11/19 04:07:12;;;;;;;17.55;8.65;;;7.70;99.90;;;;;;5016140;28;20403;-75
2022/11/19 04:09:39;;;;;;;15.60;8.30;;;7.70;99.90;;;;;;4996685;28;20041;-75
2022/11/19 04:12:07;;;;;;;14.15;8.50;;;7.70;99.90;;;;;;4995245;28;20045;-75
2022/11/19 04:14:33;;;;;;;15.48;7.90;;;7.70;99.90;;;;;;5012424;28;20042;-75
2022/11/19 04:16:59;;;;;;;14.60;8.48;;;7.70;99.90;;;;;;5013002;28;20026;-75
2022/11/19 04:19:25;;;;;;;12.80;8.20;;;7.70;99.90;;;;;;5012649;28;20034;-75
2022/11/19 04:21:51;;;;;;;17.70;8.45;;;7.70;99.90;;;;;;5013203;28;20037;-75
2022/11/19 04:24:18;;;;;;;16.40;7.88;;;7.80;99.90;;;;;;5012473;28;20127;-75
2022/11/19 04:26:44;;;;;;;16.30;9.13;;;7.80;99.90;;;;;;5013020;28;20044;-75
2022/11/19 04:29:11;;;;;;;14.43;8.93;;;7.70;99.90;;;;;;5012927;28;20030;-75
2022/11/19 04:31:37;;;;;;;13.23;7.97;;;7.70;99.90;;;;;;5012984;28;20037;-75
2022/11/19 04:34:03;;;;;;;14.73;8.57;;;7.80;99.90;;;;;;4994782;28;20057;-75
2022/11/19 04:36:29;;;;;;;17.83;8.93;;;7.80;99.90;;;;;;5011930;28;20109;-75
2022/11/19 04:38:56;;;;;;;14.73;8.75;;;7.80;99.90;;;;;;5012823;28;20380;-75
2022/11/19 04:41:22;;;;;;;18.98;8.57;;;7.80;99.90;;;;;;5011947;28;20030;-75
2022/11/19 04:43:48;;;;;;;12.43;8.38;;;7.80;99.90;;;;;;5012483;28;20040;-75
2022/11/19 04:46:14;;;;;;;15.00;8.57;;;7.80;99.90;;;;;;5012217;28;20480;-76
2022/11/19 04:48:40;;;;;;;15.20;9.10;;;7.80;99.90;;;;;;5012495;28;20034;-75
2022/11/19 04:51:07;;;;;;;18.33;8.90;;;7.70;99.90;;;;;;5012389;28;20046;-75
2022/11/19 04:53:33;;;;;;;19.60;10.25;;;7.80;99.90;;;;;;5010674;28;20046;-75
2022/11/19 04:55:59;;;;;;;15.93;9.05;;;7.80;99.90;;;;;;5012281;28;20041;-75
2022/11/19 04:58:25;;;;;;;15.35;8.45;;;7.70;99.90;;;;;;5011718;28;20057;-75
2022/11/19 05:00:51;;;;;;;20.00;10.50;;;7.70;99.90;;;;;;5012131;28;20356;-74
2022/11/19 05:03:17;;;;;;;19.65;10.75;;;7.70;99.90;;;;;;5011623;28;20451;-76
2022/11/19 05:05:44;;;;;;;15.93;10.13;;;7.60;99.90;;;;;;5012313;28;20033;-75
2022/11/19 05:08:10;;;;;;;18.52;10.70;;;7.40;99.90;;;;;;5012197;28;20029;-74
2022/11/19 05:10:36;;;;;;;19.17;11.45;;;7.20;99.90;;;;;;5011876;28;20371;-75
2022/11/19 05:13:02;;;;;;;16.65;10.52;;;6.90;99.90;;;;;;5012371;28;20041;-75
2022/11/19 05:15:28;;;;;;;18.67;9.75;;;6.70;99.90;;;;;;5011701;28;20057;-74
2022/11/19 05:17:54;;;;;;;22.42;10.95;;;6.40;99.90;;;;;;5012147;28;20037;-75
2022/11/19 05:20:20;;;;;;;18.60;10.43;;;6.20;99.90;;;;;;4993781;28;20038;-74
2022/11/19 05:22:47;;;;;;;17.58;9.88;;;6.10;99.90;;;;;;5012305;28;20030;-74
2022/11/19 05:25:13;;;;;;;18.98;11.13;;;6.00;99.90;;;;;;4994560;28;20036;-75
2022/11/19 05:27:39;;;;;;;16.85;10.00;;;5.90;99.90;;;;;;5011971;28;20061;-74
2022/11/19 05:30:06;;;;;;;19.17;11.00;;;5.80;99.90;;;;;;4994580;28;20419;-74
2022/11/19 05:32:32;;;;;;;17.95;10.68;;;5.80;99.90;;;;;;4993715;28;20042;-74
2022/11/19 05:34:58;;;;;;;14.98;9.07;;;5.80;99.90;;;;;;5012403;28;20037;-75
2022/11/19 05:37:24;;;;;;;16.05;8.95;;;5.70;99.90;;;;;;5011677;28;20506;-74
2022/11/19 05:39:50;;;;;;;13.82;8.13;;;5.70;99.90;;;;;;5011859;28;20033;-75
2022/11/19 05:42:17;;;;;;;14.27;9.02;;;5.60;99.90;;;;;;5011124;28;20030;-75
2022/11/19 05:44:43;;;;;;;16.05;9.15;;;5.60;99.90;;;;;;4994459;28;20083;-75
2022/11/19 05:47:09;;;;;;;15.75;9.13;;;5.70;99.90;;;;;;4994333;28;20033;-75
2022/11/19 05:49:35;;;;;;;20.35;10.43;;;5.70;99.90;;;;;;4993859;28;20350;-75
2022/11/19 05:52:01;;;;;;;19.17;9.77;;;5.60;99.90;;;;;;5012136;28;20045;-75
2022/11/19 05:54:27;;;;;;;16.73;9.32;;;5.70;99.90;;;;;;5011050;28;20038;-75
2022/11/19 05:56:53;;;;;;;16.20;9.02;;;5.70;99.90;;;;;;4994093;28;20045;-74
2022/11/19 05:59:19;;;;;;;17.98;8.73;;;5.70;99.90;;;;;;4994073;28;20041;-75
2022/11/19 06:01:45;;;;;;;14.68;8.75;;;5.70;99.90;;;;;;5011738;28;20513;-75
2022/11/19 06:04:12;;;;;;;13.52;8.90;;;5.70;99.90;;;;;;5012875;28;20034;-75
2022/11/19 06:06:38;;;;;;;13.35;7.70;;;5.60;99.90;;;;;;5014722;28;20037;-75
2022/11/19 06:09:04;;;;;;;13.88;7.60;;;5.60;99.90;;;;;;5015311;28;20032;-75
2022/11/19 06:11:49;;;;;;;15.30;8.10;;;5.50;99.90;;;;;;5014630;28;20037;-75
2022/11/19 06:14:21;;;;;;;12.52;7.80;;;5.60;99.90;;;;;;5015666;28;20041;-75
2022/11/19 06:16:50;;;;;;;12.70;7.97;;;5.60;99.90;;;;;;5015899;28;20049;-75
2022/11/19 06:19:20;;;;;;;13.57;8.25;;;5.50;99.90;;;;;;4997279;28;20049;-75
2022/11/19 06:21:46;;;;;;;13.32;7.63;;;5.40;99.90;;;;;;5015243;28;20462;-75
2022/11/19 06:24:13;;;;;;;14.18;7.15;;;5.40;99.90;;;;;;5015390;28;20033;-75
2022/11/19 06:26:39;;;;;;;12.65;7.63;;;5.40;99.90;;;;;;5014460;28;20478;-74
2022/11/19 06:29:06;;;;;;;14.30;7.57;;;5.50;99.90;;;;;;5015190;28;20033;-75
2022/11/19 06:31:32;;;;;;;11.65;7.45;;;5.40;99.90;;;;;;4997171;28;20041;-75
2022/11/19 06:33:58;;;;;;;16.63;9.13;;;5.50;99.90;;;;;;5014928;28;20041;-75
2022/11/19 06:36:25;;;;;;;15.13;8.50;;;5.50;99.90;;;;;;5014291;28;20041;-75
2022/11/19 06:38:51;;;;;;;14.50;8.48;;;5.50;99.90;;;;;;5014751;28;20041;-75
2022/11/19 06:41:18;;;;;;;12.50;7.38;;;5.50;99.90;;;;;;5014788;28;20030;-74
2022/11/19 06:43:44;;;;;;;13.10;8.02;;;5.40;99.90;;;;;;5015002;28;20242;-75
2022/11/19 06:46:12;;;;;;;11.52;6.63;;;5.40;99.90;;;;;;5014961;28;20436;-75
2022/11/19 06:48:38;;;;;;;13.18;8.77;;;5.40;99.90;;;;;;5014140;28;20085;-75
2022/11/19 06:51:05;;;;;;;13.85;7.72;;;5.40;99.90;;;;;;5014618;28;20121;-74
2022/11/19 06:53:31;;;;;;;12.15;7.35;;;5.40;99.90;;;;;;5013912;28;20033;-75
2022/11/19 06:56:00;;;;;;;17.02;7.97;;;5.40;99.90;;;;;;5014677;28;20041;-74
2022/11/19 06:58:26;;;;;;;11.75;7.90;;;5.40;99.90;;;;;;4996460;28;20105;-75
2022/11/19 07:00:52;;;;;;;12.32;7.70;;;5.30;99.90;;;;;;4996974;28;20033;-77
2022/11/19 07:03:19;;;;;;;12.15;7.55;;;5.40;99.90;;;;;;5014504;28;20030;-75
2022/11/19 07:05:47;;;;;;;12.45;7.65;;;5.50;99.90;;;;;;4996980;28;20049;-75
2022/11/19 07:08:13;;;;;;;13.20;7.38;;;5.40;99.90;;;;;;5014618;28;20037;-75
2022/11/19 07:10:40;;;;;;;13.23;7.55;;;5.30;99.90;;;;;;5012776;28;20377;-75
2022/11/19 07:13:06;;;;;;;14.85;7.72;;;5.40;99.90;;;;;;5014067;28;20455;-75
2022/11/19 07:15:32;;;;;;;14.75;7.80;;;5.40;99.90;;;;;;4995094;28;20053;-74
2022/11/19 07:18:00;;;;;;;11.93;7.93;;;5.40;99.90;;;;;;5013634;28;20029;-75
2022/11/19 07:20:26;;;;;;;10.43;7.05;;;5.40;99.90;;;;;;5014634;28;20402;-75
2022/11/19 07:22:52;;;;;;;10.65;7.15;;;5.50;99.90;;;;;;4996088;28;20045;-75
2022/11/19 07:25:19;;;;;;;12.20;8.02;;;5.40;99.90;;;;;;5014124;28;20044;-75
2022/11/19 07:27:46;;;;;;;15.57;8.35;;;5.40;99.90;;;;;;5012338;28;20050;-75
2022/11/19 07:30:13;;;;;;;13.27;7.97;;;5.40;99.90;;;;;;5013854;28;20484;-75
2022/11/19 07:32:40;;;;;;;13.88;7.60;;;5.40;99.90;;;;;;5013325;28;20030;-75
2022/11/19 07:35:08;;;;;;;13.98;7.45;;;5.40;99.90;;;;;;5013864;28;20049;-74
2022/11/19 07:37:35;;;;;;;13.40;7.32;;;5.30;99.90;;;;;;5012403;28;20042;-75
2022/11/19 07:40:03;;;;;;;10.80;7.28;;;5.30;99.90;;;;;;5013862;28;20034;-75
2022/11/19 07:45:18;;;;;;;14.23;8.40;;;5.40;99.90;;;;;;5013662;28;20037;-75
2022/11/19 07:47:45;;;;;;;17.38;8.52;;;5.40;99.90;;;;;;4995255;28;20046;-75
2022/11/19 07:50:11;;;;;;;16.58;8.38;;;5.40;99.90;;;;;;4995362;28;20053;-75
2022/11/19 07:52:37;;;;;;;13.00;8.52;;;5.40;99.90;;;;;;4995356;28;20030;-75
2022/11/19 07:55:04;;;;;;;17.73;7.45;;;5.30;99.90;;;;;;5013300;28;20038;-75
2022/11/19 07:57:30;;;;;;;13.75;7.07;;;5.20;99.90;;;;;;4994870;28;20053;-75
2022/11/19 07:59:57;;;;;;;10.40;6.90;;;5.20;99.90;;;;;;5013443;28;20380;-75
2022/11/19 08:02:23;;;;;;;14.38;8.60;;;5.20;99.90;;;;;;5013526;28;20038;-75
2022/11/19 08:04:49;;;;;;;12.48;7.00;;;5.30;99.90;;;;;;5013223;28;20033;-75
2022/11/19 08:07:15;;;;;;;11.90;7.13;;;5.20;99.90;;;;;;5013443;28;20034;-74
2022/11/19 08:09:41;;;;;;;11.02;7.30;;;5.20;99.90;;;;;;4995164;28;20029;-75
2022/11/19 08:12:08;;;;;;;12.50;8.23;;;5.20;99.90;;;;;;4995095;28;20055;-75
2022/11/19 08:14:34;;;;;;;9.88;5.57;;;5.20;99.90;;;;;;4994327;28;20483;-74
2022/11/19 08:19:45;;;;;;;8.43;5.53;;;5.20;99.90;;;;;;5029280;28;20059;-74
2022/11/19 08:22:11;;;;;;;9.13;5.35;;;5.20;99.90;;;;;;5020269;28;20038;-75
2022/11/19 08:24:37;;;;;;;10.48;5.30;;;5.10;99.90;;;;;;5012376;28;20026;-74
2022/11/19 08:27:04;;;;;;;8.25;5.47;;;5.10;99.90;;;;;;4995022;28;20053;-75
2022/11/19 08:29:30;;;;;;;8.85;5.47;;;5.20;99.90;;;;;;5010646;28;20053;-75
2022/11/19 08:31:57;;;;;;;8.60;4.60;;;5.20;99.90;;;;;;5012633;28;20390;-75
2022/11/19 08:34:23;;;;;;;7.82;4.97;;;5.20;99.90;;;;;;5013108;28;20050;-75
2022/11/19 08:36:49;;;;;;;9.88;5.93;;;5.20;99.90;;;;;;5010754;28;20049;-75
2022/11/19 08:39:15;;;;;;;10.18;5.85;;;5.20;99.90;;;;;;5012628;28;20126;-75
2022/11/19 08:44:26;;;;;;;9.50;5.85;;;5.00;99.90;;;;;;5012325;28;20040;-79
2022/11/19 08:46:52;;;;;;;7.63;4.45;;;4.90;99.90;;;;;;5012198;28;20026;-73
2022/11/19 08:49:18;;;;;;;7.30;4.57;;;4.90;99.90;;;;;;5009695;28;20045;-75
2022/11/19 08:51:45;;;;;;;10.00;5.20;;;4.90;99.90;;;;;;5011871;28;20034;-75
2022/11/19 08:54:12;;;;;;;10.00;5.57;;;4.90;99.90;;;;;;5013154;28;20041;-75
2022/11/19 08:56:38;;;;;;;8.35;4.68;;;4.90;99.90;;;;;;5012086;28;20037;-75
2022/11/19 08:59:04;;;;;;;8.45;4.75;;;4.80;99.90;;;;;;4978372;28;20042;-74
2022/11/19 09:01:30;;;;;;;7.07;4.40;;;4.70;99.90;;;;;;5011740;28;20497;-77
2022/11/19 09:03:57;;;;;;;9.30;5.47;;;4.80;99.90;;;;;;5012548;28;20379;-76
2022/11/19 09:06:23;;;;;;;8.30;5.35;;;4.80;99.90;;;;;;5012398;28;20034;-75
2022/11/19 09:08:49;;;;;;;9.85;5.82;;;4.70;99.90;;;;;;5011894;28;20041;-76
2022/11/19 09:11:17;;;;;;;9.27;5.15;;;4.60;99.90;;;;;;5012564;28;20045;-76
2022/11/19 09:13:43;;;;;;;10.82;5.65;;;4.50;99.90;;;;;;5011724;28;20034;-74
2022/11/19 09:16:10;;;;;;;11.07;6.47;;;4.50;99.90;;;;;;5012455;28;20042;-74
2022/11/19 09:18:40;;;;;;;12.55;6.82;;;4.40;99.90;;;;;;5011605;28;20045;-74
2022/11/19 09:21:08;;;;;;;10.93;6.93;;;4.40;99.90;;;;;;5012285;28;20471;-73
2022/11/19 09:23:35;;;;;;;12.32;7.30;;;4.40;99.90;;;;;;5011597;28;20034;-74
2022/11/19 09:26:05;;;;;;;11.82;6.85;;;4.40;99.90;;;;;;4994585;28;20046;-73
2022/11/19 09:28:31;;;;;;;14.60;7.00;;;4.40;99.90;;;;;;5012323;28;20041;-75
2022/11/19 09:31:04;;;;;;;11.48;7.13;;;4.30;99.90;;;;;;4994628;28;20050;-74
2022/11/19 09:33:33;;;;;;;11.93;6.70;;;4.30;99.90;;;;;;5011598;28;20038;-75
2022/11/19 09:35:59;;;;;;;11.68;6.72;;;4.20;99.90;;;;;;5011747;28;20038;-75
2022/11/19 09:38:25;;;;;;;11.57;6.85;;;4.00;99.90;;;;;;5012018;28;20038;-73
2022/11/19 09:40:56;;;;;;;13.38;7.35;;;4.00;99.90;;;;;;5014616;28;20391;-73
2022/11/19 09:43:40;;;;;;;12.82;7.38;;;4.00;99.90;;;;;;4998619;28;20041;-74
2022/11/19 09:46:14;;;;;;;12.20;7.30;;;4.00;99.90;;;;;;4997781;28;20041;-74
2022/11/19 09:48:40;;;;;;;13.07;7.50;;;4.00;99.90;;;;;;4996894;28;20046;-74
2022/11/19 09:51:13;;;;;;;14.02;7.95;;;4.10;99.90;;;;;;5015271;28;20037;-75
2022/11/19 09:53:48;;;;;;;12.60;8.23;;;4.00;99.90;;;;;;5014767;28;20034;-74
2022/11/19 09:56:22;;;;;;;11.35;6.85;;;4.10;99.90;;;;;;5012957;28;20053;-74
2022/11/19 09:58:48;;;;;;;13.68;8.02;;;4.10;99.90;;;;;;5014570;28;20030;-74
2022/11/19 10:01:17;;;;;;;11.95;7.53;;;4.00;99.90;;;;;;5015646;28;20029;-73
2022/11/19 10:03:52;;;;;;;11.77;7.20;;;3.90;99.90;;;;;;5015218;28;20030;-74
2022/11/19 10:06:47;;;;;;;13.73;7.07;;;3.90;99.90;;;;;;5015094;28;20034;-74
2022/11/19 10:09:34;;;;;;;12.15;7.75;;;3.90;99.90;;;;;;5013139;28;20029;-74
2022/11/19 10:12:10;;;;;;;14.68;8.75;;;3.80;99.90;;;;;;5013795;28;20510;-74
2022/11/19 10:15:01;;;;;;;14.80;6.97;;;3.90;99.90;;;;;;4994988;28;20042;-74
2022/11/19 10:17:33;;;;;;;12.57;7.55;;;3.80;99.90;;;;;;5014800;28;20038;-75
2022/11/19 10:20:17;;;;;;;14.60;7.68;;;3.90;99.90;;;;;;5015211;28;20034;-74
2022/11/19 10:22:56;;;;;;;12.88;6.82;;;3.90;99.90;;;;;;5014675;28;20487;-74
2022/11/19 10:25:43;;;;;;;14.00;8.45;;;3.90;99.90;;;;;;4997693;28;20480;-74
2022/11/19 10:28:15;;;;;;;12.02;7.70;;;3.90;99.90;;;;;;5014586;28;20052;-75
2022/11/19 10:30:51;;;;;;;14.52;7.82;;;3.90;99.90;;;;;;5014754;28;20491;-75
2022/11/19 10:33:39;;;;;;;15.57;8.85;;;3.90;99.90;;;;;;4997707;28;20387;-75
2022/11/19 10:36:14;;;;;;;13.38;7.90;;;4.00;99.90;;;;;;5014787;28;20487;-76
2022/11/19 10:39:02;;;;;;;15.38;8.32;;;4.00;99.90;;;;;;4996741;28;20057;-77
2022/11/19 10:41:35;;;;;;;15.82;9.32;;;4.10;99.90;;;;;;4997587;28;20034;-76
2022/11/19 10:44:36;;;;;;;15.60;8.95;;;4.10;99.90;;;;;;4997308;28;20042;-75
2022/11/19 10:47:20;;;;;;;14.43;7.05;;;4.00;99.90;;;;;;5014671;28;20034;-75
2022/11/19 10:49:54;;;;;;;15.32;8.32;;;3.90;99.90;;;;;;5014311;28;20038;-74
2022/11/19 10:52:46;;;;;;;16.52;8.77;;;3.90;99.90;;;;;;5013713;28;20030;-74
2022/11/19 10:55:34;;;;;;;13.23;8.95;;;3.90;99.90;;;;;;5014914;28;20045;-74
2022/11/19 10:58:10;;;;;;;14.27;8.85;;;3.90;99.90;;;;;;5014913;28;20146;-74
2022/11/19 11:00:38;;;;;;;13.98;8.48;;;3.90;99.90;;;;;;4980414;28;20042;-75
2022/11/19 11:03:12;;;;;;;17.30;9.07;;;3.90;99.90;;;;;;4997192;28;20034;-75
2022/11/19 11:05:54;;;;;;;12.45;7.35;;;3.90;99.90;;;;;;5014013;28;20033;-75
2022/11/19 11:08:21;;;;;;;12.68;7.95;;;3.80;99.90;;;;;;5014591;28;20420;-74
2022/11/19 11:10:49;;;;;;;16.40;7.60;;;3.80;99.90;;;;;;5013710;28;20486;-75
2022/11/19 11:16:09;;;;;;;12.90;6.47;;;3.80;99.90;;;;;;5014330;28;20038;-75
2022/11/19 11:18:40;;;;;;;16.88;7.50;;;3.80;99.90;;;;;;5013535;28;20503;-76
2022/11/19 11:21:12;;;;;;;10.53;5.87;;;3.80;99.90;;;;;;5020100;28;20041;-75
2022/11/19 11:23:51;;;;;;;12.20;7.47;;;3.80;99.90;;;;;;5022068;28;20061;-75
2022/11/19 11:26:22;;;;;;;14.43;7.47;;;3.80;99.90;;;;;;5009008;28;20052;-75
2022/11/19 11:29:04;;;;;;;11.33;7.17;;;3.80;99.90;;;;;;5014174;28;20027;-75
2022/11/19 11:31:34;;;;;;;16.80;8.40;;;3.70;99.90;;;;;;5014033;28;20289;-75
2022/11/19 11:34:01;;;;;;;13.68;8.10;;;3.80;99.90;;;;;;5013218;28;20049;-75
2022/11/19 11:36:30;;;;;;;17.15;9.18;;;3.70;99.90;;;;;;5014125;28;20030;-75
2022/11/19 11:38:58;;;;;;;13.07;7.78;;;3.70;99.90;;;;;;4995517;28;20382;-75
2022/11/19 11:41:32;;;;;;;15.00;9.00;;;3.70;99.90;;;;;;4995957;28;20048;-74
2022/11/19 11:44:03;;;;;;;18.65;9.05;;;3.80;99.90;;;;;;5013212;28;20045;-75
2022/11/19 11:46:39;;;;;;;13.82;8.23;;;3.90;99.90;;;;;;5013594;28;20033;-74
2022/11/19 11:49:09;;;;;;;11.05;6.70;;;3.80;99.90;;;;;;5013656;28;20041;-74
2022/11/19 11:51:40;;;;;;;12.18;7.20;;;3.80;99.90;;;;;;5013893;28;20038;-74
2022/11/19 11:54:15;;;;;;;;;;;3.70;99.90;;;;;;5014357;28;20029;-73
2022/11/19 11:56:43;;;;;;;10.45;5.63;;;3.60;99.90;;;;;;4995086;28;20290;-74
2022/11/19 11:59:30;;;;;;;10.35;6.18;;;3.60;99.90;;;;;;4979382;28;20051;-74
2022/11/19 12:02:01;;;;;;;12.75;6.60;;;3.60;99.90;;;;;;5012777;28;20041;-74
2022/11/19 12:04:28;;;;;;;12.77;6.28;;;3.70;99.90;;;;;;5013485;28;20033;-73
2022/11/19 12:07:26;;;;;;;10.98;5.80;;;3.60;99.90;;;;;;5012675;28;20030;-73
2022/11/19 12:10:05;;;;;;;9.90;5.45;;;3.60;99.90;;;;;;4995643;28;20029;-73
2022/11/19 12:12:41;;;;;;;10.90;6.63;;;3.60;99.90;;;;;;5013324;28;20037;-73
2022/11/19 12:15:07;;;;;;;12.65;6.88;;;3.60;99.90;;;;;;5012961;28;20030;-72
2022/11/19 12:18:04;;;;;;;14.60;6.88;;;3.70;99.90;;;;;;5013128;28;20049;-73
2022/11/19 12:21:00;;;;;;;13.18;7.35;;;3.60;99.90;;;;;;5013156;28;20045;-76
2022/11/19 12:23:32;;;;;;;11.88;7.20;;;3.60;99.90;;;;;;4996586;28;20037;-78
2022/11/19 12:26:01;;;;;;;140.48;30.92;;;3.50;99.90;;;;;;4980629;28;20050;-80
2022/11/19 12:28:43;;;;;;;17.30;9.25;;;3.90;99.90;;;;;;4981774;28;20423;-80
2022/11/19 12:31:15;;;;;;;16.85;8.20;;;4.00;99.90;;;;;;5029297;28;20033;-83
2022/11/19 12:33:44;;;;;;;24.08;9.48;;;3.60;99.90;;;;;;5029781;28;20038;-83
2022/11/19 12:36:39;;;;;;;16.13;8.90;;;3.50;99.90;;;;;;4995699;28;20053;-83
2022/11/19 12:39:27;;;;;;;17.00;9.32;;;3.40;99.90;;;;;;5013064;28;20042;-83
2022/11/19 12:42:06;;;;;;;18.33;9.88;;;3.50;99.90;;;;;;5012942;28;20034;-82
2022/11/19 12:44:42;;;;;;;17.80;9.45;;;3.50;99.90;;;;;;4995441;28;20042;-80
2022/11/19 12:47:23;;;;;;;16.80;8.23;;;3.50;99.90;;;;;;4995456;28;20057;-82
2022/11/19 12:50:10;;;;;;;18.88;10.13;;;3.60;99.90;;;;;;4995468;28;20049;-83
2022/11/19 12:52:56;;;;;;;16.80;9.68;;;3.60;99.90;;;;;;5013645;28;20034;-82
2022/11/19 12:55:37;;;;;;;17.90;10.43;;;3.50;99.90;;;;;;5015730;28;20029;-82
2022/11/19 12:58:45;;;;;;;16.85;9.35;;;3.50;99.90;;;;;;4995089;28;20044;-84
2022/11/19 13:01:16;;;;;;;20.65;11.88;;;3.60;99.90;;;;;;4999839;28;20053;-84
2022/11/19 13:04:10;;;;;;;19.70;11.32;;;3.60;99.90;;;;;;4994796;28;20042;-84
2022/11/19 13:07:01;;;;;;;21.05;10.60;;;3.60;99.90;;;;;;4978878;28;20057;-82
2022/11/19 13:09:39;;;;;;;18.30;9.55;;;3.50;99.90;;;;;;4978629;28;20510;-85
2022/11/19 13:12:14;;;;;;;15.65;8.93;;;3.50;99.90;;;;;;4994338;28;20041;-83
2022/11/19 13:14:50;;;;;;;17.42;8.88;;;3.50;99.90;;;;;;4994266;28;20050;-85
2022/11/19 13:17:21;;;;;;;15.43;8.45;;;3.50;99.90;;;;;;4978736;28;20050;-80
2022/11/19 13:19:54;;;;;;;18.05;9.93;;;3.50;99.90;;;;;;5012104;28;20127;-80
2022/11/19 13:22:26;;;;;;;15.48;8.80;;;3.50;99.90;;;;;;5012758;28;20034;-83
2022/11/19 13:25:00;;;;;;;20.70;11.45;;;3.60;99.90;;;;;;5012122;28;20037;-83